Time;durP1;ratioP1;P1;durP2;ratioP2;P2;SDS_P1;SDS_P2;PMS_P1;PMS_P2;Temp;Humidity;BMP_temperature;BMP_pressure;BME280_temperature;BME280_humidity;BME280_pressure;Samples;Min_cycle;Max_cycle;Signal;HPM_P1;HPM_P2
2023/06/07 00:01:51;;;;;;;13.65;7.72;;;11.20;99.90;;;;;;5027992;28;20056;-71
2023/06/07 00:04:17;;;;;;;14.75;7.38;;;11.20;99.90;;;;;;5062275;28;20040;-70
2023/06/07 00:06:43;;;;;;;11.88;7.32;;;11.20;99.90;;;;;;5044356;28;20051;-70
2023/06/07 00:09:09;;;;;;;14.77;7.30;;;11.20;99.90;;;;;;5048080;28;20131;-70
2023/06/07 00:11:36;;;;;;;14.10;7.15;;;11.20;99.90;;;;;;5044507;28;20584;-70
2023/06/07 00:14:02;;;;;;;12.98;6.93;;;11.10;99.90;;;;;;5064054;28;20531;-71
2023/06/07 00:16:28;;;;;;;12.65;7.22;;;11.20;99.90;;;;;;5044401;28;20075;-70
2023/06/07 00:18:54;;;;;;;11.75;7.32;;;11.10;99.90;;;;;;5062643;28;20036;-71
2023/06/07 00:21:20;;;;;;;13.25;7.57;;;11.10;99.90;;;;;;5045352;28;20044;-70
2023/06/07 00:23:50;;;;;;;11.70;6.85;;;11.10;99.90;;;;;;5039900;28;20714;-70
2023/06/07 00:26:16;;;;;;;14.23;7.30;;;11.00;99.90;;;;;;5057734;28;20084;-70
2023/06/07 00:28:42;;;;;;;14.57;7.15;;;11.10;99.90;;;;;;5015889;28;20076;-70
2023/06/07 00:31:08;;;;;;;14.32;7.03;;;11.00;99.90;;;;;;5048795;28;20066;-70
2023/06/07 00:33:33;;;;;;;14.18;7.25;;;11.00;99.90;;;;;;5059735;28;20036;-70
2023/06/07 00:36:02;;;;;;;13.98;7.20;;;11.00;99.90;;;;;;5037109;28;20038;-70
2023/06/07 00:38:28;;;;;;;13.88;8.25;;;10.90;99.90;;;;;;5059178;28;20121;-70
2023/06/07 00:40:54;;;;;;;11.20;6.70;;;10.80;99.90;;;;;;5036529;28;20036;-71
2023/06/07 00:43:20;;;;;;;14.05;7.22;;;10.80;99.90;;;;;;5059884;28;20087;-71
2023/06/07 00:45:45;;;;;;;10.98;6.15;;;10.70;99.90;;;;;;5059744;28;20086;-71
2023/06/07 00:48:12;;;;;;;15.45;7.68;;;10.70;99.90;;;;;;5045131;28;20134;-71
2023/06/07 00:50:38;;;;;;;16.80;8.27;;;10.70;99.90;;;;;;5057566;28;20495;-70
2023/06/07 00:53:04;;;;;;;17.23;7.63;;;10.70;99.90;;;;;;5044541;28;20430;-70
2023/06/07 00:55:31;;;;;;;13.27;7.63;;;10.70;99.90;;;;;;5059367;28;20032;-70
2023/06/07 00:57:58;;;;;;;12.80;7.40;;;10.70;99.90;;;;;;5046824;28;20082;-70
2023/06/07 01:00:24;;;;;;;13.48;8.30;;;10.70;99.90;;;;;;5063377;28;20044;-70
2023/06/07 01:02:51;;;;;;;10.93;7.22;;;10.70;99.90;;;;;;5060165;28;20119;-70
2023/06/07 01:05:17;;;;;;;15.05;9.02;;;10.60;99.90;;;;;;5056302;28;20136;-70
2023/06/07 01:07:48;;;;;;;14.98;8.32;;;10.50;99.90;;;;;;5080197;28;20166;-70
2023/06/07 01:10:14;;;;;;;13.90;7.85;;;10.50;99.90;;;;;;5029039;28;20092;-70
2023/06/07 01:12:43;;;;;;;11.18;7.68;;;10.30;99.90;;;;;;5065738;28;20047;-70
2023/06/07 01:15:13;;;;;;;10.43;6.90;;;10.20;99.90;;;;;;5046220;28;20044;-70
2023/06/07 01:17:44;;;;;;;13.70;7.88;;;10.10;99.90;;;;;;5046544;28;20044;-70
2023/06/07 01:20:21;;;;;;;14.32;7.85;;;10.10;99.90;;;;;;5059658;28;20039;-70
2023/06/07 01:22:49;;;;;;;12.45;7.60;;;10.00;99.90;;;;;;5060778;28;20043;-71
2023/06/07 01:25:15;;;;;;;11.85;7.15;;;9.90;99.90;;;;;;5041993;28;20122;-71
2023/06/07 01:27:44;;;;;;;15.18;8.27;;;9.90;99.90;;;;;;5041733;28;20622;-71
2023/06/07 01:30:14;;;;;;;12.60;7.63;;;9.90;99.90;;;;;;5043423;28;20036;-72
2023/06/07 01:32:41;;;;;;;;;;;9.90;99.90;;;;;;5060467;28;20044;-71
2023/06/07 01:35:09;;;;;;;9.90;7.32;;;9.90;99.90;;;;;;5063130;28;19923;-71
2023/06/07 01:37:36;;;;;;;10.20;6.38;;;9.80;99.90;;;;;;5060336;28;20050;-71
2023/06/07 01:40:05;;;;;;;13.35;7.22;;;10.00;99.90;;;;;;5058175;28;20040;-71
2023/06/07 01:42:33;;;;;;;13.73;7.70;;;10.00;99.90;;;;;;5061883;28;20428;-72
2023/06/07 01:45:00;;;;;;;10.65;7.53;;;10.00;99.90;;;;;;5063156;28;20411;-71
2023/06/07 01:47:26;;;;;;;14.13;7.25;;;10.00;99.90;;;;;;5061690;28;20153;-71
2023/06/07 01:49:52;;;;;;;13.57;8.45;;;10.00;99.90;;;;;;5050167;28;20614;-71
2023/06/07 01:52:18;;;;;;;12.05;6.93;;;10.00;99.90;;;;;;5046105;28;20056;-71
2023/06/07 01:54:44;;;;;;;12.23;7.82;;;10.00;99.90;;;;;;5057762;28;20224;-71
2023/06/07 01:57:46;;;;;;;20.20;9.27;;;10.00;99.90;;;;;;5061244;28;20070;-71
2023/06/07 02:00:40;;;;;;;15.93;8.50;;;10.00;99.90;;;;;;5059550;28;20044;-73
2023/06/07 02:03:18;;;;;;;14.50;9.38;;;10.00;99.90;;;;;;5058894;28;20134;-74
2023/06/07 02:05:56;;;;;;;14.77;9.30;;;10.00;99.90;;;;;;5056838;28;20518;-74
2023/06/07 02:08:31;;;;;;;14.60;9.07;;;10.00;99.90;;;;;;5037011;28;20512;-74
2023/06/07 02:10:58;;;;;;;14.90;9.02;;;9.90;99.90;;;;;;5063850;28;20044;-72
2023/06/07 02:13:27;;;;;;;15.60;9.07;;;9.90;99.90;;;;;;5045315;28;20036;-72
2023/06/07 02:15:53;;;;;;;12.75;7.47;;;10.00;99.90;;;;;;5061595;28;20075;-72
2023/06/07 02:18:19;;;;;;;11.52;7.65;;;9.90;99.90;;;;;;5066252;28;20129;-72
2023/06/07 02:20:45;;;;;;;12.73;8.52;;;10.00;99.90;;;;;;5056430;28;20222;-72
2023/06/07 02:23:14;;;;;;;13.95;7.85;;;10.00;99.90;;;;;;5042552;28;20052;-72
2023/06/07 02:25:40;;;;;;;14.55;9.35;;;10.00;99.90;;;;;;5046550;28;20117;-72
2023/06/07 02:28:06;;;;;;;17.45;10.45;;;10.10;99.90;;;;;;5061996;28;20480;-72
2023/06/07 02:30:31;;;;;;;16.58;10.95;;;10.10;99.90;;;;;;5035093;28;20060;-72
2023/06/07 02:32:57;;;;;;;13.07;9.25;;;10.20;99.90;;;;;;5029962;28;20048;-72
2023/06/07 02:35:23;;;;;;;18.38;10.43;;;10.20;99.90;;;;;;5039926;28;20080;-71
2023/06/07 02:37:49;;;;;;;19.75;11.73;;;10.20;99.90;;;;;;5064662;28;20536;-72
2023/06/07 02:40:15;;;;;;;17.20;11.10;;;10.30;99.90;;;;;;5066446;28;20454;-72
2023/06/07 02:42:45;;;;;;;17.25;10.07;;;10.30;99.90;;;;;;5057913;28;20071;-70
2023/06/07 02:45:13;;;;;;;24.23;13.63;;;10.40;99.90;;;;;;5044894;28;20059;-71
2023/06/07 02:47:43;;;;;;;16.48;10.85;;;10.40;99.90;;;;;;5028155;28;20653;-71
2023/06/07 02:50:09;;;;;;;14.80;10.23;;;10.40;99.90;;;;;;5064274;28;20040;-72
2023/06/07 02:52:36;;;;;;;17.23;12.00;;;10.40;99.90;;;;;;5072230;28;20052;-72
2023/06/07 02:55:05;;;;;;;16.48;10.77;;;10.40;99.90;;;;;;5049468;28;20842;-71
2023/06/07 02:57:31;;;;;;;14.98;10.13;;;10.40;99.90;;;;;;5055633;28;20048;-70
2023/06/07 02:59:58;;;;;;;17.08;10.73;;;10.50;99.90;;;;;;5061902;28;20051;-70
2023/06/07 03:02:23;;;;;;;17.95;10.85;;;10.50;99.90;;;;;;5061479;28;20106;-70
2023/06/07 03:04:50;;;;;;;19.45;11.23;;;10.50;99.90;;;;;;5029810;28;21255;-70
2023/06/07 03:07:16;;;;;;;16.73;10.05;;;10.50;99.90;;;;;;5049648;28;20048;-70
2023/06/07 03:09:43;;;;;;;21.17;11.70;;;10.50;99.90;;;;;;5047999;28;20421;-71
2023/06/07 03:12:10;;;;;;;15.20;9.50;;;10.50;99.90;;;;;;5068154;28;20400;-71
2023/06/07 03:14:38;;;;;;;19.10;9.85;;;10.50;99.90;;;;;;5042727;28;20071;-70
2023/06/07 03:17:04;;;;;;;17.15;9.98;;;10.50;99.90;;;;;;5051564;28;20044;-71
2023/06/07 03:19:30;;;;;;;15.48;10.07;;;10.50;99.90;;;;;;5032559;28;20480;-71
2023/06/07 03:21:55;;;;;;;17.70;9.65;;;10.50;99.90;;;;;;5064220;28;20043;-72
2023/06/07 03:24:23;;;;;;;16.67;9.68;;;10.50;99.90;;;;;;5049723;28;20039;-74
2023/06/07 03:26:50;;;;;;;22.38;10.45;;;10.50;99.90;;;;;;5034630;28;20135;-74
2023/06/07 03:29:18;;;;;;;16.55;9.82;;;10.50;99.90;;;;;;5061275;28;20067;-74
2023/06/07 03:31:44;;;;;;;15.55;9.43;;;10.50;99.90;;;;;;5065152;28;20543;-74
2023/06/07 03:34:10;;;;;;;18.42;9.35;;;10.50;99.90;;;;;;5043718;28;20086;-73
2023/06/07 03:36:40;;;;;;;13.55;8.75;;;10.50;99.90;;;;;;5067239;28;20036;-73
2023/06/07 03:39:05;;;;;;;19.25;8.82;;;10.50;99.90;;;;;;5061789;28;20047;-74
2023/06/07 03:41:31;;;;;;;19.02;10.13;;;10.50;99.90;;;;;;5047899;28;20578;-74
2023/06/07 03:43:57;;;;;;;16.30;9.30;;;10.50;99.90;;;;;;5040350;28;20919;-74
2023/06/07 03:46:23;;;;;;;20.88;8.10;;;10.50;99.90;;;;;;5047693;28;20039;-74
2023/06/07 03:48:49;;;;;;;19.88;9.55;;;10.50;99.90;;;;;;5044893;28;20040;-74
2023/06/07 03:51:14;;;;;;;17.83;9.52;;;10.60;99.90;;;;;;5043482;28;20044;-74
2023/06/07 03:53:40;;;;;;;18.67;8.80;;;10.60;99.90;;;;;;5066999;28;20044;-74
2023/06/07 03:56:06;;;;;;;21.48;9.45;;;10.60;99.90;;;;;;5029660;28;20496;-74
2023/06/07 03:58:32;;;;;;;23.25;9.68;;;10.70;99.90;;;;;;5049539;28;20562;-74
2023/06/07 04:00:58;;;;;;;17.63;8.50;;;10.70;99.90;;;;;;5041489;28;20499;-74
2023/06/07 04:03:28;;;;;;;18.40;9.25;;;10.60;99.90;;;;;;5050542;28;20076;-72
2023/06/07 04:05:59;;;;;;;19.73;8.50;;;10.70;99.90;;;;;;5044056;28;20056;-72
2023/06/07 04:08:26;;;;;;;17.00;8.73;;;10.70;99.90;;;;;;5049945;28;20047;-72
2023/06/07 04:10:52;;;;;;;15.80;8.23;;;10.70;99.90;;;;;;5050963;28;20055;-72
2023/06/07 04:13:19;;;;;;;20.60;9.32;;;10.70;99.90;;;;;;5045934;28;20062;-72
2023/06/07 04:15:45;;;;;;;19.23;8.95;;;10.80;99.90;;;;;;5078506;28;20127;-72
2023/06/07 04:18:11;;;;;;;17.88;9.40;;;10.80;99.90;;;;;;5060986;28;20035;-72
2023/06/07 04:20:40;;;;;;;20.05;9.90;;;10.80;99.90;;;;;;5049414;28;20059;-72
2023/06/07 04:23:05;;;;;;;20.85;8.85;;;10.90;99.90;;;;;;5046778;28;20704;-72
2023/06/07 04:25:32;;;;;;;16.52;7.82;;;10.90;99.90;;;;;;5039710;28;20041;-72
2023/06/07 04:28:01;;;;;;;17.55;8.52;;;10.90;99.90;;;;;;5057930;28;20047;-72
2023/06/07 04:30:40;;;;;;;17.52;8.68;;;10.90;99.90;;;;;;5063390;28;20047;-72
2023/06/07 04:33:09;;;;;;;15.90;7.10;;;11.00;99.90;;;;;;5049795;28;20484;-72
2023/06/07 04:35:44;;;;;;;19.92;8.40;;;11.00;99.90;;;;;;5050177;28;20037;-72
2023/06/07 04:38:32;;;;;;;14.57;7.65;;;11.10;99.90;;;;;;5047051;28;20064;-71
2023/06/07 04:41:00;;;;;;;16.63;7.65;;;11.10;99.90;;;;;;5048851;28;20078;-72
2023/06/07 04:43:26;;;;;;;14.45;7.03;;;11.20;99.90;;;;;;5033335;28;20667;-72
2023/06/07 04:45:55;;;;;;;13.88;6.75;;;11.30;99.90;;;;;;5063560;28;20040;-71
2023/06/07 04:48:28;;;;;;;17.08;7.00;;;11.40;99.90;;;;;;5043810;28;20063;-73
2023/06/07 04:51:04;;;;;;;19.25;7.15;;;11.50;99.90;;;;;;5057691;28;20055;-72
2023/06/07 04:53:35;;;;;;;19.13;7.43;;;11.40;99.90;;;;;;5046996;28;20733;-71
2023/06/07 04:56:02;;;;;;;20.48;8.25;;;11.50;99.90;;;;;;5049883;28;20847;-72
2023/06/07 04:58:28;;;;;;;16.10;7.75;;;11.60;99.90;;;;;;5037822;28;20465;-72
2023/06/07 05:00:56;;;;;;;20.40;8.02;;;11.60;99.90;;;;;;5057720;28;20048;-71
2023/06/07 05:03:22;;;;;;;18.35;7.75;;;11.60;99.90;;;;;;5043677;28;20087;-72
2023/06/07 05:05:49;;;;;;;15.95;7.50;;;11.70;99.90;;;;;;5047791;28;20733;-72
2023/06/07 05:08:15;;;;;;;17.65;7.97;;;11.70;99.90;;;;;;5047268;28;20087;-72
2023/06/07 05:10:44;;;;;;;19.38;8.50;;;11.80;99.90;;;;;;5014075;28;20470;-72
2023/06/07 05:13:10;;;;;;;16.98;7.53;;;11.90;99.90;;;;;;5026533;28;20047;-72
2023/06/07 05:15:39;;;;;;;15.18;6.97;;;11.90;99.90;;;;;;5026101;28;20505;-71
2023/06/07 05:18:07;;;;;;;17.38;7.97;;;12.00;99.90;;;;;;5059845;28;20040;-71
2023/06/07 05:20:33;;;;;;;17.60;7.68;;;12.00;99.90;;;;;;5043133;28;20518;-72
2023/06/07 05:22:59;;;;;;;16.65;6.45;;;12.00;99.90;;;;;;5043777;28;20044;-71
2023/06/07 05:25:28;;;;;;;17.08;6.90;;;12.00;99.90;;;;;;5061659;28;20051;-71
2023/06/07 05:27:54;;;;;;;15.35;6.35;;;12.10;99.90;;;;;;5016731;28;20549;-71
2023/06/07 05:30:20;;;;;;;17.05;6.53;;;12.10;99.90;;;;;;5032944;28;20040;-71
2023/06/07 05:32:48;;;;;;;17.38;6.90;;;12.10;99.90;;;;;;5049969;28;20036;-71
2023/06/07 05:35:13;;;;;;;19.33;7.07;;;12.20;99.90;;;;;;5030429;28;20073;-72
2023/06/07 05:37:39;;;;;;;19.58;6.97;;;12.30;99.90;;;;;;5027683;28;20194;-71
2023/06/07 05:40:08;;;;;;;16.80;7.13;;;12.30;99.90;;;;;;5049398;28;20060;-71
2023/06/07 05:42:38;;;;;;;15.05;6.40;;;12.30;99.90;;;;;;5044701;28;20442;-70
2023/06/07 05:45:06;;;;;;;17.27;7.03;;;12.30;99.90;;;;;;5029453;28;20040;-70
2023/06/07 05:47:32;;;;;;;19.17;6.53;;;12.40;99.90;;;;;;5060237;28;20044;-71
2023/06/07 05:49:58;;;;;;;15.35;6.28;;;12.50;99.90;;;;;;5048963;28;20036;-70
2023/06/07 05:52:23;;;;;;;15.35;5.88;;;12.50;99.90;;;;;;5026263;28;20176;-70
2023/06/07 05:54:51;;;;;;;13.63;5.85;;;12.50;99.90;;;;;;5026339;28;20037;-70
2023/06/07 05:57:17;;;;;;;18.55;6.35;;;12.60;99.90;;;;;;5028962;28;20049;-70
2023/06/07 05:59:43;;;;;;;13.75;5.63;;;12.60;99.90;;;;;;5048896;28;20048;-70
2023/06/07 06:02:09;;;;;;;14.75;5.60;;;12.60;99.90;;;;;;5045453;28;20409;-69
2023/06/07 06:04:35;;;;;;;16.45;5.82;;;12.60;99.90;;;;;;5014591;28;20055;-70
2023/06/07 06:07:00;;;;;;;16.05;5.80;;;12.60;99.90;;;;;;5028051;28;20039;-70
2023/06/07 06:09:27;;;;;;;12.88;5.13;;;12.60;99.90;;;;;;4996478;28;20052;-70
2023/06/07 06:11:55;;;;;;;12.90;5.00;;;12.60;99.90;;;;;;5045181;28;20048;-72
2023/06/07 06:14:21;;;;;;;17.88;5.50;;;12.60;99.90;;;;;;5011141;28;20060;-72
2023/06/07 06:16:47;;;;;;;13.25;5.50;;;12.60;99.90;;;;;;5043425;28;20393;-71
2023/06/07 06:19:12;;;;;;;14.38;5.20;;;12.60;99.90;;;;;;5009975;28;20064;-72
2023/06/07 06:21:38;;;;;;;15.90;5.65;;;12.70;99.90;;;;;;5030394;28;20055;-73
2023/06/07 06:24:04;;;;;;;15.98;5.38;;;12.70;99.90;;;;;;5046431;28;20045;-73
2023/06/07 06:26:30;;;;;;;11.98;4.50;;;12.70;99.90;;;;;;5024948;28;20067;-73
2023/06/07 06:28:58;;;;;;;15.10;5.00;;;12.70;99.90;;;;;;5024926;28;20390;-72
2023/06/07 06:31:24;;;;;;;10.85;4.60;;;12.80;99.90;;;;;;5031463;28;20056;-72
2023/06/07 06:33:50;;;;;;;14.65;5.63;;;12.80;99.90;;;;;;5023856;28;20116;-72
2023/06/07 06:36:17;;;;;;;15.27;5.43;;;12.90;99.90;;;;;;5044060;28;20147;-73
2023/06/07 06:38:43;;;;;;;13.05;5.50;;;12.90;99.90;;;;;;5030290;28;20075;-73
2023/06/07 06:41:18;;;;;;;14.05;5.65;;;13.00;99.90;;;;;;5043492;28;20040;-71
2023/06/07 06:43:44;;;;;;;15.02;5.03;;;13.00;99.90;;;;;;5028812;28;20048;-72
2023/06/07 06:46:10;;;;;;;12.93;5.60;;;13.00;99.90;;;;;;5014959;28;20127;-72
2023/06/07 06:48:37;;;;;;;16.25;6.20;;;13.00;99.90;;;;;;5041338;28;20040;-72
2023/06/07 06:51:03;;;;;;;13.43;5.03;;;13.00;99.90;;;;;;5012787;28;20051;-72
2023/06/07 06:53:28;;;;;;;13.65;5.10;;;13.00;99.90;;;;;;5029731;28;20050;-71
2023/06/07 06:55:54;;;;;;;14.13;5.72;;;13.00;99.90;;;;;;5042977;28;20522;-72
2023/06/07 06:58:20;;;;;;;13.07;5.60;;;13.10;99.90;;;;;;5030686;28;20044;-74
2023/06/07 07:00:46;;;;;;;13.27;5.78;;;13.20;99.90;;;;;;5044944;28;20040;-74
2023/06/07 07:03:12;;;;;;;14.27;5.07;;;13.20;99.90;;;;;;5028208;28;20512;-75
2023/06/07 07:05:38;;;;;;;11.07;4.60;;;13.40;99.90;;;;;;5029818;28;20040;-74
2023/06/07 07:08:04;;;;;;;15.50;5.07;;;13.50;99.90;;;;;;5046021;28;20450;-74
2023/06/07 07:10:29;;;;;;;12.35;5.80;;;13.60;99.90;;;;;;5030593;28;20048;-73
2023/06/07 07:12:55;;;;;;;13.55;4.85;;;13.80;99.90;;;;;;5036651;28;20060;-74
2023/06/07 07:15:21;;;;;;;14.18;5.47;;;14.10;99.90;;;;;;5029115;28;20033;-72
2023/06/07 07:17:48;;;;;;;11.50;5.10;;;14.20;99.90;;;;;;5031914;28;20483;-73
2023/06/07 07:20:15;;;;;;;10.38;4.95;;;14.30;99.90;;;;;;5043273;28;20147;-72
2023/06/07 07:22:41;;;;;;;10.85;5.35;;;14.50;99.90;;;;;;5041549;28;20067;-72
2023/06/07 07:25:09;;;;;;;15.38;5.10;;;14.60;99.90;;;;;;5004684;28;20037;-73
2023/06/07 07:27:34;;;;;;;10.13;4.47;;;14.90;99.90;;;;;;5043528;28;20504;-72
2023/06/07 07:30:01;;;;;;;14.27;5.13;;;15.00;99.90;;;;;;5018466;28;20048;-73
2023/06/07 07:32:26;;;;;;;12.93;4.43;;;15.10;99.90;;;;;;5041535;28;20497;-72
2023/06/07 07:34:52;;;;;;;14.52;4.95;;;15.30;99.90;;;;;;5043815;28;20040;-72
2023/06/07 07:37:19;;;;;;;12.70;5.28;;;15.40;99.90;;;;;;5027897;28;20393;-72
2023/06/07 07:39:45;;;;;;;12.00;4.57;;;15.40;99.90;;;;;;5013430;28;20056;-73
2023/06/07 07:42:12;;;;;;;11.63;4.22;;;15.30;99.90;;;;;;5027409;28;20048;-72
2023/06/07 07:44:38;;;;;;;14.40;5.38;;;15.20;99.90;;;;;;5027538;28;20041;-72
2023/06/07 07:47:06;;;;;;;14.20;5.10;;;15.30;99.90;;;;;;5024205;28;20094;-73
2023/06/07 07:49:33;;;;;;;10.32;4.00;;;15.40;99.90;;;;;;5039399;28;20052;-72
2023/06/07 07:51:58;;;;;;;10.57;4.60;;;15.50;99.90;;;;;;5023260;28;20053;-72
2023/06/07 07:54:25;;;;;;;10.50;4.65;;;15.70;99.90;;;;;;5029639;28;20486;-72
2023/06/07 07:56:51;;;;;;;10.88;4.53;;;15.90;99.90;;;;;;5001227;28;20123;-72
2023/06/07 07:59:17;;;;;;;11.55;4.70;;;15.90;99.90;;;;;;5055405;28;20206;-72
2023/06/07 08:01:45;;;;;;;12.00;5.15;;;15.90;99.90;;;;;;5009727;28;20504;-72
2023/06/07 08:04:14;;;;;;;10.38;4.65;;;15.80;99.90;;;;;;5011946;28;20405;-72
2023/06/07 08:06:39;;;;;;;11.07;4.82;;;15.80;99.90;;;;;;5051331;28;20525;-73
2023/06/07 08:09:05;;;;;;;11.90;4.65;;;15.80;99.90;;;;;;5031745;28;20043;-72
2023/06/07 08:11:32;;;;;;;12.88;4.97;;;16.00;99.90;;;;;;5043690;28;20055;-72
2023/06/07 08:13:57;;;;;;;14.05;5.20;;;16.10;99.90;;;;;;5031045;28;20043;-72
2023/06/07 08:16:23;;;;;;;12.57;4.85;;;16.20;99.90;;;;;;5048215;28;20035;-72
2023/06/07 08:18:56;;;;;;;13.20;5.45;;;16.40;99.90;;;;;;5065050;28;20415;-74
2023/06/07 08:21:22;;;;;;;11.23;5.32;;;16.50;99.90;;;;;;5062529;28;20052;-74
2023/06/07 08:23:48;;;;;;;10.18;5.30;;;16.60;99.90;;;;;;5046550;28;20507;-74
2023/06/07 08:26:15;;;;;;;11.65;5.10;;;16.70;99.90;;;;;;5067324;28;20089;-75
2023/06/07 08:28:42;;;;;;;16.10;5.47;;;16.80;99.90;;;;;;5062545;28;20051;-75
2023/06/07 08:31:10;;;;;;;12.02;4.90;;;17.00;99.90;;;;;;5051110;28;20044;-74
2023/06/07 08:33:36;;;;;;;12.52;5.63;;;17.00;99.90;;;;;;5048087;28;20052;-74
2023/06/07 08:36:03;;;;;;;9.50;4.90;;;17.00;99.90;;;;;;5047185;28;20047;-74
2023/06/07 08:38:28;;;;;;;13.55;5.03;;;17.00;99.90;;;;;;5044593;28;20036;-74
2023/06/07 08:40:55;;;;;;;10.77;5.07;;;17.00;99.90;;;;;;5057459;28;20049;-74
2023/06/07 08:43:21;;;;;;;9.38;4.82;;;16.90;99.90;;;;;;5062576;28;20044;-72
2023/06/07 08:45:49;;;;;;;13.35;5.05;;;17.10;99.90;;;;;;5062634;28;20503;-73
2023/06/07 08:48:16;;;;;;;10.98;4.68;;;17.20;99.90;;;;;;5062657;28;20052;-74
2023/06/07 08:50:45;;;;;;;10.75;5.00;;;17.20;99.90;;;;;;5046644;28;20052;-74
2023/06/07 08:53:15;;;;;;;13.07;4.95;;;17.30;99.90;;;;;;5060670;28;20557;-75
2023/06/07 08:55:54;;;;;;;11.52;4.93;;;17.40;99.90;;;;;;5046935;28;20121;-74
2023/06/07 08:58:24;;;;;;;13.27;5.28;;;17.50;99.90;;;;;;5034151;28;20041;-76
2023/06/07 09:00:53;;;;;;;9.68;4.68;;;17.50;99.90;;;;;;5047003;28;20784;-74
2023/06/07 09:03:19;;;;;;;11.05;5.60;;;17.60;99.90;;;;;;5051335;28;20045;-74
2023/06/07 09:05:46;;;;;;;12.43;5.45;;;17.70;99.90;;;;;;5069602;28;20040;-74
2023/06/07 09:08:12;;;;;;;10.02;4.72;;;17.90;99.90;;;;;;5047955;28;20068;-74
2023/06/07 09:10:38;;;;;;;10.88;5.45;;;18.00;99.90;;;;;;5068983;28;20097;-75
2023/06/07 09:13:05;;;;;;;9.35;4.93;;;18.00;99.90;;;;;;5051900;28;20056;-74
2023/06/07 09:15:33;;;;;;;11.95;5.07;;;18.00;99.90;;;;;;5053788;28;20554;-75
2023/06/07 09:18:02;;;;;;;13.07;5.40;;;18.10;99.90;;;;;;5050654;28;20497;-75
2023/06/07 09:20:31;;;;;;;12.23;6.13;;;18.10;99.90;;;;;;5066093;28;20040;-74
2023/06/07 09:23:04;;;;;;;13.05;5.80;;;18.10;99.90;;;;;;5066379;28;20727;-73
2023/06/07 09:25:30;;;;;;;13.70;5.72;;;18.20;99.90;;;;;;5052853;28;20383;-72
2023/06/07 09:27:57;;;;;;;9.75;4.53;;;18.40;99.90;;;;;;5034422;28;20044;-73
2023/06/07 09:30:23;;;;;;;11.65;5.75;;;18.40;99.90;;;;;;5049978;28;20040;-73
2023/06/07 09:32:49;;;;;;;10.93;5.45;;;18.60;99.90;;;;;;5066202;28;20403;-72
2023/06/07 09:35:18;;;;;;;13.43;5.90;;;18.80;99.90;;;;;;5036664;28;20040;-71
2023/06/07 09:37:51;;;;;;;14.45;5.75;;;18.90;99.90;;;;;;5047028;28;20050;-72
2023/06/07 09:40:17;;;;;;;10.57;6.00;;;18.90;99.90;;;;;;5064877;28;20133;-71
2023/06/07 09:42:43;;;;;;;12.00;5.03;;;18.90;99.90;;;;;;5061875;28;20040;-71
2023/06/07 09:45:18;;;;;;;12.60;4.80;;;18.90;99.90;;;;;;5051210;28;20036;-71
2023/06/07 09:47:45;;;;;;;10.43;4.28;;;18.90;99.90;;;;;;5067636;28;20070;-71
2023/06/07 09:50:12;;;;;;;10.98;5.32;;;19.00;99.90;;;;;;5080729;28;20453;-72
2023/06/07 09:52:39;;;;;;;10.43;4.78;;;19.10;99.90;;;;;;5066683;28;20047;-73
2023/06/07 09:55:24;;;;;;;11.48;5.07;;;19.30;99.90;;;;;;5050542;28;20543;-73
2023/06/07 09:57:50;;;;;;;13.13;5.40;;;19.60;99.90;;;;;;5064268;28;20492;-71
2023/06/07 10:00:18;;;;;;;11.00;5.03;;;19.70;99.90;;;;;;5047303;28;20044;-71
2023/06/07 10:02:48;;;;;;;10.75;5.25;;;19.70;99.90;;;;;;5066119;28;20140;-71
2023/06/07 10:05:15;;;;;;;11.50;4.90;;;19.60;99.90;;;;;;5029839;28;20420;-73
2023/06/07 10:07:46;;;;;;;11.25;5.50;;;19.60;99.90;;;;;;5065507;28;20552;-72
2023/06/07 10:10:14;;;;;;;10.85;5.28;;;19.50;99.90;;;;;;5063410;28;20101;-72
2023/06/07 10:12:42;;;;;;;10.40;4.78;;;19.60;99.90;;;;;;5063046;28;20044;-72
2023/06/07 10:15:11;;;;;;;11.10;5.20;;;19.80;99.90;;;;;;5062050;28;20850;-72
2023/06/07 10:17:55;;;;;;;9.07;5.03;;;19.80;99.70;;;;;;5057857;28;20496;-72
2023/06/07 10:20:25;;;;;;;8.13;4.57;;;20.00;99.10;;;;;;5067078;28;20193;-72
2023/06/07 10:22:54;;;;;;;11.07;5.20;;;20.00;99.80;;;;;;5048456;28;20055;-72
2023/06/07 10:25:28;;;;;;;11.15;5.13;;;20.30;99.80;;;;;;5050328;28;20048;-72
2023/06/07 10:28:13;;;;;;;12.77;5.57;;;20.40;99.30;;;;;;5064611;28;20408;-72
2023/06/07 10:30:43;;;;;;;10.15;5.50;;;20.50;98.80;;;;;;5064660;28;20040;-72
2023/06/07 10:33:10;;;;;;;12.25;6.05;;;20.40;98.60;;;;;;5067193;28;20044;-72
2023/06/07 10:35:37;;;;;;;12.40;5.18;;;20.30;97.90;;;;;;5048857;28;20036;-72
2023/06/07 10:38:03;;;;;;;9.68;5.43;;;20.20;97.20;;;;;;5050001;28;20048;-72
2023/06/07 10:40:31;;;;;;;10.93;5.65;;;20.10;97.70;;;;;;5048690;28;20043;-72
2023/06/07 10:42:58;;;;;;;10.70;5.68;;;20.20;98.10;;;;;;5064486;28;20040;-73
2023/06/07 10:45:23;;;;;;;8.75;4.97;;;20.30;99.20;;;;;;5062539;28;20103;-72
2023/06/07 10:47:50;;;;;;;12.43;5.40;;;20.40;98.00;;;;;;5050200;28;20500;-73
2023/06/07 10:50:28;;;;;;;9.93;4.90;;;20.50;96.70;;;;;;5048838;28;20538;-73
2023/06/07 10:53:03;;;;;;;9.98;4.95;;;20.40;95.90;;;;;;5065225;28;20127;-74
2023/06/07 10:55:31;;;;;;;7.68;5.13;;;20.50;96.30;;;;;;5048944;28;20729;-72
2023/06/07 10:58:00;;;;;;;12.98;5.07;;;20.60;95.10;;;;;;5059495;28;20043;-73
2023/06/07 11:00:31;;;;;;;13.20;5.93;;;20.60;95.40;;;;;;5066178;28;20042;-73
2023/06/07 11:03:10;;;;;;;11.48;4.75;;;20.70;95.50;;;;;;5057644;28;20483;-73
2023/06/07 11:05:57;;;;;;;8.95;4.85;;;20.90;94.80;;;;;;5065542;28;20073;-73
2023/06/07 11:08:26;;;;;;;8.98;4.40;;;21.00;95.10;;;;;;5044378;28;20052;-72
2023/06/07 11:11:00;;;;;;;13.85;5.80;;;21.20;94.90;;;;;;5062357;28;20044;-72
2023/06/07 11:13:38;;;;;;;8.80;4.38;;;21.30;92.90;;;;;;5030826;28;20052;-73
2023/06/07 11:16:23;;;;;;;14.43;5.53;;;21.20;91.90;;;;;;5048100;28;20033;-74
2023/06/07 11:18:52;;;;;;;11.55;5.00;;;21.40;93.90;;;;;;5065571;28;20090;-74
2023/06/07 11:21:18;;;;;;;10.10;5.53;;;21.40;92.30;;;;;;5063699;28;20036;-74
2023/06/07 11:24:12;;;;;;;10.43;5.53;;;21.30;91.80;;;;;;5046932;28;20518;-74
2023/06/07 11:26:39;;;;;;;9.65;4.38;;;21.20;92.90;;;;;;5065916;28;20081;-75
2023/06/07 11:29:06;;;;;;;11.65;5.78;;;21.30;93.60;;;;;;5059982;28;20914;-75
2023/06/07 11:31:31;;;;;;;11.52;5.10;;;21.40;92.90;;;;;;5065498;28;20658;-74
2023/06/07 11:33:57;;;;;;;13.48;5.28;;;21.40;92.30;;;;;;5064141;28;20135;-74
2023/06/07 11:36:23;;;;;;;10.90;5.35;;;21.50;92.00;;;;;;5051033;28;20112;-74
2023/06/07 11:38:55;;;;;;;12.60;5.35;;;21.50;92.00;;;;;;5046462;28;20416;-75
2023/06/07 11:41:24;;;;;;;9.80;5.40;;;21.60;92.30;;;;;;5050858;28;20048;-74
2023/06/07 11:43:50;;;;;;;10.00;4.50;;;21.60;91.90;;;;;;5060091;28;20500;-74
2023/06/07 11:46:22;;;;;;;11.50;4.75;;;21.50;92.00;;;;;;5033812;28;20565;-74
2023/06/07 11:48:48;;;;;;;8.95;4.65;;;21.50;92.60;;;;;;5045566;28;20399;-74
2023/06/07 11:51:14;;;;;;;11.45;5.72;;;21.40;92.00;;;;;;5047149;28;20054;-74
2023/06/07 11:53:41;;;;;;;11.80;5.18;;;21.40;92.30;;;;;;5031071;28;20052;-74
2023/06/07 11:56:08;;;;;;;10.38;4.70;;;21.30;91.50;;;;;;5062851;28;20067;-74
2023/06/07 11:58:36;;;;;;;11.35;4.72;;;21.20;92.00;;;;;;5047290;28;20046;-74
2023/06/07 12:01:02;;;;;;;9.43;4.82;;;21.10;92.10;;;;;;5067505;28;20085;-75
2023/06/07 12:03:28;;;;;;;9.90;4.88;;;21.10;92.00;;;;;;5048455;28;20063;-75
2023/06/07 12:05:55;;;;;;;8.35;4.85;;;21.10;92.10;;;;;;5032621;28;20040;-75
2023/06/07 12:08:22;;;;;;;9.35;4.50;;;21.20;92.70;;;;;;5063141;28;20119;-75
2023/06/07 12:10:53;;;;;;;8.50;4.82;;;21.20;92.60;;;;;;5032913;28;20063;-75
2023/06/07 12:13:20;;;;;;;12.30;5.88;;;21.40;90.70;;;;;;5057751;28;20135;-75
2023/06/07 12:15:53;;;;;;;9.18;4.63;;;21.50;91.20;;;;;;5058964;28;20040;-73
2023/06/07 12:18:23;;;;;;;8.82;4.93;;;21.50;90.40;;;;;;5046921;28;20052;-73
2023/06/07 12:21:03;;;;;;;9.63;5.13;;;21.60;91.50;;;;;;5028208;28;20044;-73
2023/06/07 12:23:29;;;;;;;11.25;4.70;;;21.70;92.00;;;;;;5039398;28;20041;-73
2023/06/07 12:26:14;;;;;;;11.02;4.78;;;21.90;90.90;;;;;;5010203;28;20079;-72
2023/06/07 12:28:42;;;;;;;11.32;5.55;;;21.80;87.60;;;;;;5038792;28;20497;-72
2023/06/07 12:31:28;;;;;;;10.45;5.38;;;21.80;89.30;;;;;;5032611;28;20095;-72
2023/06/07 12:34:02;;;;;;;11.27;4.85;;;21.90;90.40;;;;;;5033587;28;20060;-72
2023/06/07 12:36:30;;;;;;;9.93;5.10;;;22.10;89.70;;;;;;5044178;28;20052;-72
2023/06/07 12:39:04;;;;;;;11.43;5.10;;;22.20;87.70;;;;;;5042988;28;20106;-72
2023/06/07 12:41:32;;;;;;;13.05;4.97;;;22.20;86.30;;;;;;5043056;28;20044;-71
2023/06/07 12:43:59;;;;;;;10.93;5.70;;;22.20;89.70;;;;;;5025780;28;20044;-71